createdAt,value
2016-04-30T00:00:28.038Z,37.26
2016-04-30T00:01:28.306Z,37.36
2016-04-30T00:02:27.933Z,37.45
2016-04-30T00:03:27.826Z,37.36
2016-04-30T00:04:27.689Z,37.36
2016-04-30T00:05:27.801Z,37.36
2016-04-30T00:06:27.757Z,37.34
2016-04-30T00:07:27.557Z,37.26
2016-04-30T00:08:27.496Z,37.16
2016-04-30T00:09:27.484Z,37.36
2016-04-30T00:10:27.409Z,37.36
2016-04-30T00:11:27.504Z,37.36
2016-04-30T00:12:27.476Z,37.45
2016-04-30T00:13:27.417Z,36.96
2016-04-30T00:14:27.373Z,37.34
2016-04-30T00:15:30.328Z,37.43
2016-04-30T00:16:27.300Z,37.34
2016-04-30T00:17:27.223Z,37.26
2016-04-30T00:18:27.305Z,36.96
2016-04-30T00:19:27.136Z,37.16
2016-04-30T00:20:27.295Z,37.26
2016-04-30T00:21:27.031Z,37.36
2016-04-30T00:22:26.987Z,37.16
2016-04-30T00:23:26.944Z,37.24
2016-04-30T00:24:26.727Z,37.36
2016-04-30T00:25:29.840Z,37.26
2016-04-30T00:26:26.795Z,37.26
2016-04-30T00:27:27.033Z,37.43
2016-04-30T00:28:26.550Z,37.36
2016-04-30T00:29:26.647Z,37.36
2016-04-30T00:30:26.587Z,37.36
2016-04-30T00:31:26.606Z,37.36
2016-04-30T00:32:26.499Z,37.36
2016-04-30T00:33:26.314Z,37.53
2016-04-30T00:34:26.410Z,37.24
2016-04-30T00:35:26.366Z,37.36
2016-04-30T00:36:29.322Z,37.26
2016-04-30T00:37:26.263Z,37.26
2016-04-30T00:38:26.218Z,37.24
2016-04-30T00:39:26.173Z,37.45
2016-04-30T00:40:25.957Z,37.26
2016-04-30T00:41:25.898Z,36.98
2016-04-30T00:42:26.010Z,37.36
2016-04-30T00:43:25.826Z,37.34
2016-04-30T00:44:25.906Z,37.26
2016-04-30T00:45:25.862Z,37.16
2016-04-30T00:46:25.849Z,37.26
2016-04-30T00:47:25.789Z,37.36
2016-04-30T00:48:26.198Z,37.45
2016-04-30T00:49:25.670Z,36.88
2016-04-30T00:50:25.641Z,37.24
2016-04-30T00:51:25.425Z,37.16
2016-04-30T00:52:25.537Z,36.98
2016-04-30T00:53:25.556Z,37.07
2016-04-30T00:54:25.292Z,37.34
2016-04-30T00:55:25.420Z,37.36
2016-04-30T00:56:25.360Z,37.45
2016-04-30T00:57:25.300Z,37.34
2016-04-30T00:58:25.241Z,37.45
2016-04-30T00:59:25.244Z,37.26
2016-04-30T01:00:25.152Z,37.26
2016-04-30T01:01:25.108Z,37.45
2016-04-30T01:02:25.251Z,37.26
2016-04-30T01:03:24.880Z,37.34
2016-04-30T01:04:24.960Z,37.36
2016-04-30T01:05:24.962Z,37.36
2016-04-30T01:06:24.856Z,37.36
2016-04-30T01:07:24.812Z,37.45
2016-04-30T01:08:24.768Z,36.98
2016-04-30T01:09:24.707Z,36.96
2016-04-30T01:10:24.695Z,36.96
2016-04-30T01:11:24.619Z,37.16
2016-04-30T01:12:24.576Z,37.45
2016-04-30T01:13:24.531Z,37.16
2016-04-30T01:14:24.487Z,37.53
2016-04-30T01:15:24.443Z,37.36
2016-04-30T01:16:24.226Z,37.34
2016-04-30T01:17:24.339Z,37.53
2016-04-30T01:18:24.279Z,37.26
2016-04-30T01:19:27.265Z,37.26
2016-04-30T01:20:24.190Z,37.45
2016-04-30T01:21:24.131Z,37.24
2016-04-30T01:22:24.133Z,37.24
2016-04-30T01:23:24.058Z,37.36
2016-04-30T01:24:24.014Z,37.36
2016-04-30T01:25:24.141Z,37.36
2016-04-30T01:26:27.097Z,37.26
2016-04-30T01:27:23.850Z,37.36
2016-04-30T01:28:24.118Z,37.55
2016-04-30T01:29:23.761Z,37.45
2016-04-30T01:30:23.701Z,37.26
2016-04-30T01:31:23.516Z,37.45
2016-04-30T01:32:23.630Z,37.26
2016-04-30T01:33:23.553Z,37.36
2016-04-30T01:34:23.525Z,37.53
2016-04-30T01:35:23.715Z,37.45
2016-04-30T01:36:23.421Z,37.55
2016-04-30T01:37:23.361Z,37.55
2016-04-30T01:38:23.332Z,37.45
2016-04-30T01:39:23.288Z,37.55
2016-04-30T01:40:23.213Z,37.55
2016-04-30T01:41:23.199Z,37.55
2016-04-30T01:42:23.734Z,37.26
2016-04-30T01:43:23.143Z,37.26
2016-04-30T01:44:23.037Z,37.36
2016-04-30T01:45:22.977Z,37.26
2016-04-30T01:46:22.932Z,37.53
2016-04-30T01:47:22.887Z,37.34
2016-04-30T01:48:22.859Z,37.34
2016-04-30T01:49:22.628Z,37.36
2016-04-30T01:50:22.802Z,37.26
2016-04-30T01:51:22.540Z,37.07
2016-04-30T01:52:22.651Z,37.55
2016-04-30T01:53:22.592Z,37.34
2016-04-30T01:54:22.594Z,37.24
2016-04-30T01:55:22.534Z,37.24
2016-04-30T01:56:22.459Z,37.07
2016-04-30T01:57:22.414Z,37.45
2016-04-30T01:58:22.355Z,37.45
2016-04-30T01:59:22.327Z,37.55
2016-04-30T02:00:22.267Z,37.07
2016-04-30T02:01:22.222Z,37.16
2016-04-30T02:02:22.178Z,37.07
2016-04-30T02:03:25.322Z,36.98
2016-04-30T02:04:22.075Z,37.36
2016-04-30T02:05:22.030Z,37.45
2016-04-30T02:06:21.827Z,37.34
2016-04-30T02:07:21.783Z,37.26
2016-04-30T02:08:21.879Z,37.36
2016-04-30T02:09:21.819Z,37.43
2016-04-30T02:10:21.775Z,37.26
2016-04-30T02:11:21.746Z,37.26
2016-04-30T02:12:21.687Z,37.36
2016-04-30T02:13:21.690Z,37.26
2016-04-30T02:14:21.427Z,37.36
2016-04-30T02:15:21.570Z,37.36
2016-04-30T02:16:21.494Z,37.15
2016-04-30T02:17:21.434Z,37.26
2016-04-30T02:18:21.407Z,37.24
2016-04-30T02:19:21.331Z,37.26
2016-04-30T02:20:21.287Z,37.36
2016-04-30T02:21:21.101Z,37.36
2016-04-30T02:22:21.198Z,37.24
2016-04-30T02:23:21.154Z,37.24
2016-04-30T02:24:21.110Z,37.34
2016-04-30T02:25:21.050Z,37.15
2016-04-30T02:26:21.209Z,37.26
2016-04-30T02:27:20.945Z,37.36
2016-04-30T02:28:20.948Z,37.34
2016-04-30T02:29:20.889Z,37.36
2016-04-30T02:30:20.875Z,37.26
2016-04-30T02:31:20.614Z,37.36
2016-04-30T02:32:20.725Z,37.36
2016-04-30T02:33:20.666Z,37.26
2016-04-30T02:34:21.027Z,37.16
2016-04-30T02:35:20.577Z,37.45
2016-04-30T02:36:20.516Z,37.26
2016-04-30T02:37:20.472Z,37.34
2016-04-30T02:38:20.429Z,37.26
2016-04-30T02:39:23.402Z,37.26
2016-04-30T02:40:23.358Z,37.26
2016-04-30T02:41:26.315Z,37.26
2016-04-30T02:42:20.252Z,37.34
2016-04-30T02:43:20.192Z,37.26
2016-04-30T02:44:20.148Z,37.45
2016-04-30T02:45:20.104Z,37.24
2016-04-30T02:46:20.060Z,37.24
2016-04-30T02:47:26.018Z,37.26
2016-04-30T02:48:19.940Z,37.26
2016-04-30T02:49:23.540Z,37.34
2016-04-30T02:50:19.852Z,37.26
2016-04-30T02:51:19.854Z,37.36
2016-04-30T02:52:19.763Z,37.34
2016-04-30T02:53:19.719Z,37.26
2016-04-30T02:54:19.659Z,37.26
2016-04-30T02:55:19.474Z,37.26
2016-04-30T02:56:19.555Z,37.26
2016-04-30T02:57:19.543Z,37.07
2016-04-30T02:58:19.326Z,37.26
2016-04-30T02:59:19.423Z,37.16
2016-04-30T03:00:19.378Z,37.26
2016-04-30T03:01:19.161Z,37.16
2016-04-30T03:02:19.289Z,37.16
2016-04-30T03:03:19.230Z,37.26
2016-04-30T03:04:19.186Z,37.07
2016-04-30T03:05:19.142Z,37.16
2016-04-30T03:06:19.097Z,37.05
2016-04-30T03:07:19.038Z,37.16
2016-04-30T03:08:18.994Z,37.16
2016-04-30T03:09:18.934Z,37.16
2016-04-30T03:10:19.093Z,37.16
2016-04-30T03:11:18.846Z,37.07
2016-04-30T03:12:18.801Z,37.07
2016-04-30T03:13:18.741Z,37.07
2016-04-30T03:14:18.697Z,36.98
2016-04-30T03:15:21.668Z,36.96
2016-04-30T03:16:18.594Z,36.88
2016-04-30T03:17:18.565Z,36.4
2016-04-30T03:18:18.521Z,36.77
2016-04-30T03:19:18.914Z,36.69
2016-04-30T03:20:18.401Z,36.88
2016-04-30T03:21:18.372Z,36.98
2016-04-30T03:22:18.312Z,36.79
2016-04-30T03:23:21.315Z,36.96
2016-04-30T03:24:18.412Z,36.86
2016-04-30T03:25:18.180Z,36.86
2016-04-30T03:26:18.137Z,36.67
2016-04-30T03:27:18.076Z,36.77
2016-04-30T03:28:20.875Z,36.79
2016-04-30T03:29:17.972Z,36.79
2016-04-30T03:30:17.928Z,36.67
2016-04-30T03:31:17.884Z,36.79
2016-04-30T03:32:17.824Z,36.98
2016-04-30T03:33:17.829Z,36.77
2016-04-30T03:34:17.837Z,36.67
2016-04-30T03:35:17.847Z,36.69
2016-04-30T03:36:17.855Z,36.69
2016-04-30T03:37:17.849Z,36.79
2016-04-30T03:38:17.669Z,36.79
2016-04-30T03:39:17.800Z,36.79
2016-04-30T03:40:17.619Z,36.69
2016-04-30T03:41:17.733Z,36.69
2016-04-30T03:42:17.709Z,36.88
2016-04-30T03:43:17.672Z,36.86
2016-04-30T03:44:17.635Z,36.79
2016-04-30T03:45:17.597Z,36.69
2016-04-30T03:46:17.560Z,36.67
2016-04-30T03:47:17.508Z,36.79
2016-04-30T03:48:17.466Z,36.59
2016-04-30T03:49:20.283Z,36.79
2016-04-30T03:50:17.352Z,36.67
2016-04-30T03:51:17.310Z,36.79
2016-04-30T03:52:20.128Z,36.79
2016-04-30T03:53:17.085Z,36.67
2016-04-30T03:54:17.182Z,36.57
2016-04-30T03:55:17.124Z,36.69
2016-04-30T03:56:17.080Z,36.69
2016-04-30T03:57:17.036Z,36.79
2016-04-30T03:58:17.008Z,36.69
2016-04-30T03:59:17.527Z,36.98
2016-04-30T04:00:16.889Z,36.77
2016-04-30T04:01:16.846Z,36.79
2016-04-30T04:02:16.802Z,36.77
2016-04-30T04:03:19.742Z,36.69
2016-04-30T04:04:17.042Z,36.69
2016-04-30T04:05:16.669Z,36.69
2016-04-30T04:06:16.453Z,36.59
2016-04-30T04:07:16.549Z,36.77
2016-04-30T04:08:16.504Z,36.67
2016-04-30T04:09:16.462Z,36.88
2016-04-30T04:10:16.449Z,36.79
2016-04-30T04:11:16.357Z,37.07
2016-04-30T04:12:16.313Z,36.88
2016-04-30T04:13:16.268Z,36.79
2016-04-30T04:14:16.225Z,36.69
2016-04-30T04:15:19.024Z,36.69
2016-04-30T04:16:16.121Z,36.3
2016-04-30T04:17:16.061Z,36.98
2016-04-30T04:18:16.032Z,36.77
2016-04-30T04:19:15.988Z,36.77
2016-04-30T04:20:15.928Z,36.88
2016-04-30T04:21:15.728Z,36.77
2016-04-30T04:22:15.840Z,36.67
2016-04-30T04:23:15.795Z,36.69
2016-04-30T04:24:15.595Z,36.59
2016-04-30T04:25:15.535Z,36.69
2016-04-30T04:26:15.632Z,36.77
2016-04-30T04:27:15.635Z,36.77
2016-04-30T04:28:15.544Z,36.79
2016-04-30T04:29:15.500Z,36.69
2016-04-30T04:30:15.439Z,36.69
2016-04-30T04:31:15.396Z,36.69
2016-04-30T04:32:15.351Z,36.79
2016-04-30T04:33:15.166Z,36.79
2016-04-30T04:34:18.278Z,36.79
2016-04-30T04:35:15.203Z,36.86
2016-04-30T04:36:15.159Z,36.79
2016-04-30T04:37:15.115Z,36.79
2016-04-30T04:38:15.149Z,36.59
2016-04-30T04:39:15.010Z,36.79
2016-04-30T04:40:14.982Z,36.59
2016-04-30T04:41:14.923Z,36.49
2016-04-30T04:42:14.878Z,36.69
2016-04-30T04:43:17.834Z,36.79
2016-04-30T04:44:14.774Z,36.69
2016-04-30T04:45:14.729Z,36.98
2016-04-30T04:46:14.686Z,36.77
2016-04-30T04:47:14.626Z,36.79
2016-04-30T04:48:14.567Z,36.79
2016-04-30T04:49:14.990Z,36.77
2016-04-30T04:50:14.493Z,36.67
2016-04-30T04:51:14.433Z,36.88
2016-04-30T04:52:14.405Z,36.79
2016-04-30T04:53:14.344Z,36.67
2016-04-30T04:54:14.286Z,36.79
2016-04-30T04:55:14.241Z,36.79
2016-04-30T04:56:14.197Z,36.49
2016-04-30T04:57:14.152Z,36.88
2016-04-30T04:58:14.108Z,36.77
2016-04-30T04:59:13.939Z,36.69
2016-04-30T05:00:14.005Z,36.59
2016-04-30T05:01:13.977Z,36.3
2016-04-30T05:02:13.916Z,36.49
2016-04-30T05:03:13.857Z,36.69
2016-04-30T05:04:16.655Z,36.59
2016-04-30T05:05:13.768Z,36.69
2016-04-30T05:06:13.708Z,36.69
2016-04-30T05:07:16.680Z,36.88
2016-04-30T05:08:13.604Z,36.79
2016-04-30T05:09:13.404Z,36.69
2016-04-30T05:10:13.531Z,36.59
2016-04-30T05:11:13.471Z,36.69
2016-04-30T05:12:13.412Z,36.79
2016-04-30T05:13:13.368Z,36.57
2016-04-30T05:14:13.182Z,36.77
2016-04-30T05:15:13.295Z,36.79
2016-04-30T05:16:13.079Z,36.69
2016-04-30T05:17:16.175Z,36.3
2016-04-30T05:18:13.131Z,36.79
2016-04-30T05:19:13.103Z,36.57
2016-04-30T05:20:13.043Z,36.79
2016-04-30T05:21:12.983Z,36.77
2016-04-30T05:22:12.939Z,36.79
2016-04-30T05:23:12.910Z,36.4
2016-04-30T05:24:12.850Z,36.47
2016-04-30T05:25:12.806Z,36.38
2016-04-30T05:26:12.762Z,36.69
2016-04-30T05:27:12.702Z,36.88
2016-04-30T05:28:12.658Z,36.88
2016-04-30T05:29:12.614Z,36.86
2016-04-30T05:30:12.554Z,36.77
2016-04-30T05:31:12.494Z,36.79
2016-04-30T05:32:12.466Z,36.79
2016-04-30T05:33:12.265Z,36.49
2016-04-30T05:34:12.361Z,36.88
2016-04-30T05:35:12.333Z,36.3
2016-04-30T05:36:12.273Z,36.49
2016-04-30T05:37:12.308Z,36.49
2016-04-30T05:38:12.169Z,36.79
2016-04-30T05:39:12.125Z,36.4
2016-04-30T05:40:12.065Z,36.67
2016-04-30T05:41:12.021Z,36.29
2016-04-30T05:42:11.836Z,36.4
2016-04-30T05:43:11.760Z,36.3
2016-04-30T05:44:11.888Z,36.57
2016-04-30T05:45:11.829Z,36.4
2016-04-30T05:46:11.785Z,36.29
2016-04-30T05:47:11.943Z,36.47
2016-04-30T05:48:11.540Z,36.69
2016-04-30T05:49:14.668Z,36.49
2016-04-30T05:50:11.608Z,36.59
2016-04-30T05:51:11.376Z,36.49
2016-04-30T05:52:11.503Z,36.38
2016-04-30T05:53:11.459Z,36.49
2016-04-30T05:54:11.415Z,36.4
2016-04-30T05:55:11.355Z,36.11
2016-04-30T05:56:11.311Z,36.19
2016-04-30T05:57:11.252Z,36.19
2016-04-30T05:58:11.051Z,36.19
2016-04-30T05:59:11.164Z,36.19
2016-04-30T06:00:11.120Z,36
2016-04-30T06:01:11.090Z,36.02
2016-04-30T06:02:10.858Z,36.02
2016-04-30T06:03:10.956Z,36.11
2016-04-30T06:04:11.005Z,36.21
2016-04-30T06:05:10.867Z,36.4
2016-04-30T06:06:11.026Z,36.4
2016-04-30T06:07:10.779Z,36.21
2016-04-30T06:08:10.578Z,36.21
2016-04-30T06:09:10.690Z,36.3
2016-04-30T06:10:10.630Z,36.19
2016-04-30T06:11:10.586Z,36.21
2016-04-30T06:12:13.543Z,36.38
2016-04-30T06:13:10.498Z,36.02
2016-04-30T06:14:10.438Z,36.21
2016-04-30T06:15:10.393Z,36.3
2016-04-30T06:16:10.178Z,36.4
2016-04-30T06:17:10.290Z,36.4
2016-04-30T06:18:10.261Z,36.19
2016-04-30T06:19:10.045Z,36.38
2016-04-30T06:20:10.142Z,36.4
2016-04-30T06:21:10.113Z,36.21
2016-04-30T06:22:10.053Z,36.1
2016-04-30T06:23:10.003Z,36.4
2016-04-30T06:24:09.944Z,36.4
2016-04-30T06:25:09.914Z,36.4
2016-04-30T06:26:09.871Z,36.3
2016-04-30T06:27:09.795Z,36.49
2016-04-30T06:28:09.783Z,36.38
2016-04-30T06:29:09.754Z,36.19
2016-04-30T06:30:09.663Z,36.3
2016-04-30T06:31:09.478Z,36.3
2016-04-30T06:32:09.559Z,36.4
2016-04-30T06:33:09.390Z,36.49
2016-04-30T06:34:09.471Z,36.38
2016-04-30T06:35:09.441Z,36.38
2016-04-30T06:36:09.382Z,36.19
2016-04-30T06:37:09.322Z,36.29
2016-04-30T06:38:09.278Z,35.9
2016-04-30T06:39:09.218Z,35.9
2016-04-30T06:40:09.190Z,36.4
2016-04-30T06:41:09.333Z,36.29
2016-04-30T06:42:09.101Z,36.4
2016-04-30T06:43:09.026Z,36.21
2016-04-30T06:44:09.012Z,36.29
2016-04-30T06:45:08.953Z,36.38
2016-04-30T06:46:08.721Z,36.21
2016-04-30T06:47:08.833Z,36.1
2016-04-30T06:48:08.805Z,36.4
2016-04-30T06:49:08.589Z,36.3
2016-04-30T06:50:08.717Z,36.19
2016-04-30T06:51:08.501Z,36.11
2016-04-30T06:52:08.597Z,36.4
2016-04-30T06:53:08.552Z,36.21
2016-04-30T06:54:08.509Z,36.29
2016-04-30T06:55:08.309Z,36.29
2016-04-30T06:56:08.405Z,36.19
2016-04-30T06:57:08.360Z,36
2016-04-30T06:58:08.316Z,36.4
2016-04-30T06:59:08.256Z,36.49
2016-04-30T07:00:08.228Z,36.3
2016-04-30T07:01:08.169Z,36.21
2016-04-30T07:02:08.124Z,36.4
2016-04-30T07:03:08.080Z,36.3
2016-04-30T07:04:08.333Z,36.3
2016-04-30T07:05:07.976Z,36.19
2016-04-30T07:06:07.931Z,36.21
2016-04-30T07:07:07.747Z,36.29
2016-04-30T07:08:07.827Z,36.11
2016-04-30T07:09:07.799Z,36.3
2016-04-30T07:10:07.755Z,36.4
2016-04-30T07:11:07.538Z,36.57
2016-04-30T07:12:07.635Z,36.57
2016-04-30T07:13:07.591Z,36.38
2016-04-30T07:14:07.531Z,36.3
2016-04-30T07:15:07.706Z,36.38
2016-04-30T07:16:07.443Z,36.49
2016-04-30T07:17:07.399Z,36.4
2016-04-30T07:18:07.354Z,36.38
2016-04-30T07:19:07.154Z,36.11
2016-04-30T07:20:07.266Z,36.21
2016-04-30T07:21:07.206Z,36.21
2016-04-30T07:22:07.147Z,36.47
2016-04-30T07:23:07.103Z,36.4
2016-04-30T07:24:07.042Z,36.3
2016-04-30T07:25:06.998Z,36.29
2016-04-30T07:26:06.986Z,36.3
2016-04-30T07:27:09.910Z,36.21
2016-04-30T07:28:06.866Z,36.4
2016-04-30T07:29:06.837Z,36.21
2016-04-30T07:30:06.965Z,36.4
2016-04-30T07:31:09.717Z,36.11
2016-04-30T07:32:06.674Z,36.21
2016-04-30T07:33:06.629Z,36.3
2016-04-30T07:34:06.413Z,36.21
2016-04-30T07:35:06.525Z,36.29
2016-04-30T07:36:06.481Z,36.19
2016-04-30T07:37:06.421Z,36.4
2016-04-30T07:38:06.221Z,36.38
2016-04-30T07:39:06.349Z,36.11
2016-04-30T07:40:06.288Z,36
2016-04-30T07:41:06.229Z,36.11
2016-04-30T07:42:06.185Z,36
2016-04-30T07:43:06.328Z,36.02
2016-04-30T07:44:06.096Z,36.02
2016-04-30T07:45:08.896Z,36
2016-04-30T07:46:06.007Z,36.1
2016-04-30T07:47:06.010Z,36
2016-04-30T07:48:05.904Z,36.11
2016-04-30T07:49:05.860Z,36.11
2016-04-30T07:50:05.878Z,36.19
2016-04-30T07:51:05.959Z,36
2016-04-30T07:52:05.742Z,36.1
2016-04-30T07:53:05.667Z,36.02
2016-04-30T07:54:05.623Z,36
2016-04-30T07:55:05.564Z,36.29
2016-04-30T07:56:05.519Z,36.1
2016-04-30T07:57:05.475Z,36.11
2016-04-30T07:58:05.431Z,36.1
2016-04-30T07:59:05.371Z,36.21
2016-04-30T08:00:05.311Z,36
2016-04-30T08:01:05.267Z,36.19
2016-04-30T08:02:05.222Z,36
2016-04-30T08:03:05.178Z,36.1
2016-04-30T08:04:05.150Z,36.11
2016-04-30T08:05:05.074Z,35.9
2016-04-30T08:06:05.046Z,36.11
2016-04-30T08:07:04.985Z,35.73
2016-04-30T08:08:04.927Z,36.1
2016-04-30T08:09:04.883Z,36.19
2016-04-30T08:10:04.854Z,36.1
2016-04-30T08:11:04.809Z,36.29
2016-04-30T08:12:04.593Z,36.38
2016-04-30T08:13:04.534Z,36.19
2016-04-30T08:14:04.645Z,36.19
2016-04-30T08:15:04.601Z,36.38
2016-04-30T08:16:04.557Z,36.1
2016-04-30T08:17:04.513Z,36.38
2016-04-30T08:18:07.453Z,36.19
2016-04-30T08:19:04.425Z,36.4
2016-04-30T08:20:04.568Z,36
2016-04-30T08:21:04.226Z,36.1
2016-04-30T08:22:04.261Z,36.38
2016-04-30T08:23:04.295Z,36
2016-04-30T08:24:04.173Z,36.19
2016-04-30T08:25:03.957Z,36.21
2016-04-30T08:26:04.147Z,36.1
2016-04-30T08:27:04.024Z,36
2016-04-30T08:28:03.981Z,36.11
2016-04-30T08:29:03.764Z,36.38
2016-04-30T08:30:09.907Z,36.4
2016-04-30T08:31:03.817Z,36.38
2016-04-30T08:32:03.788Z,36.38
2016-04-30T08:33:03.728Z,36.57
2016-04-30T08:34:04.621Z,36.57
2016-04-30T08:35:03.639Z,36.59
2016-04-30T08:36:06.595Z,36.19
2016-04-30T08:37:03.755Z,36.69
2016-04-30T08:38:03.507Z,36.38
2016-04-30T08:39:03.446Z,36.19
2016-04-30T08:40:03.387Z,36.59
2016-04-30T08:41:03.343Z,36.47
2016-04-30T08:42:03.315Z,36.47
2016-04-30T08:43:03.254Z,36.47
2016-04-30T08:44:03.210Z,36.67
2016-04-30T08:45:03.151Z,36.69
2016-04-30T08:46:03.107Z,36.38
2016-04-30T08:47:03.140Z,36.79
2016-04-30T08:48:03.221Z,36.86
2016-04-30T08:49:02.802Z,36.67
2016-04-30T08:50:02.915Z,36.77
2016-04-30T08:51:02.917Z,36.79
2016-04-30T08:52:02.810Z,36.86
2016-04-30T08:53:02.767Z,36.79
2016-04-30T08:54:02.722Z,36.86
2016-04-30T08:55:02.708Z,36.77
2016-04-30T08:56:05.633Z,36.67
2016-04-30T08:57:02.589Z,36.86
2016-04-30T08:58:02.530Z,36.98
2016-04-30T08:59:02.469Z,36.77
2016-04-30T09:00:02.441Z,36.77
2016-04-30T09:01:02.381Z,36.96
2016-04-30T09:02:02.337Z,36.86
2016-04-30T09:03:02.293Z,36.86
2016-04-30T09:04:02.342Z,36.88
2016-04-30T09:05:02.189Z,36.77
2016-04-30T09:06:02.145Z,36.88
2016-04-30T09:07:05.100Z,36.98
2016-04-30T09:08:02.057Z,36.88
2016-04-30T09:09:01.997Z,36.88
2016-04-30T09:10:04.968Z,36.88
2016-04-30T09:11:01.923Z,36.69
2016-04-30T09:12:01.895Z,36.67
2016-04-30T09:13:01.804Z,36.96
2016-04-30T09:14:01.760Z,36.88
2016-04-30T09:15:01.700Z,36.88
2016-04-30T09:16:01.499Z,36.86
2016-04-30T09:17:01.456Z,36.47
2016-04-30T09:18:01.584Z,36.47
2016-04-30T09:19:01.929Z,36.67
2016-04-30T09:20:01.479Z,36.79
2016-04-30T09:21:01.420Z,36.96
2016-04-30T09:22:01.360Z,36.86
2016-04-30T09:23:01.331Z,36.86
2016-04-30T09:24:01.271Z,36.86
2016-04-30T09:25:01.228Z,36.86
2016-04-30T09:26:01.168Z,36.79
2016-04-30T09:27:01.169Z,36.69
2016-04-30T09:28:01.078Z,36.96
2016-04-30T09:29:01.034Z,36.69
2016-04-30T09:30:01.006Z,36.67
2016-04-30T09:31:00.930Z,36.67
2016-04-30T09:32:00.886Z,36.67
2016-04-30T09:33:00.842Z,36.77
2016-04-30T09:34:01.048Z,36.79
2016-04-30T09:35:00.597Z,36.79
2016-04-30T09:36:03.539Z,36.57
2016-04-30T09:37:00.494Z,36.69
2016-04-30T09:38:00.590Z,36.77
2016-04-30T09:39:00.561Z,36.67
2016-04-30T09:40:00.705Z,36.77
2016-04-30T09:41:13.036Z,36.77
2016-04-30T09:42:00.413Z,36.57
2016-04-30T09:43:00.369Z,36.77
2016-04-30T09:44:00.340Z,36.67
2016-04-30T09:45:00.266Z,36.96
2016-04-30T09:46:00.065Z,36.98
2016-04-30T09:47:00.020Z,36.47
2016-04-30T09:48:00.040Z,36.67
2016-04-30T09:49:00.510Z,36.67
2016-04-30T09:50:00.059Z,36.69
2016-04-30T09:51:02.844Z,36.57
2016-04-30T09:51:59.971Z,36.57
2016-04-30T09:52:59.740Z,36.59
2016-04-30T09:53:59.868Z,36.38
2016-04-30T09:54:59.839Z,36.3
2016-04-30T09:55:59.920Z,36.38
2016-04-30T09:56:59.688Z,36.38
2016-04-30T09:57:59.659Z,36.69
2016-04-30T09:58:59.584Z,36.29
2016-04-30T09:59:59.400Z,36.29
2016-04-30T10:00:59.495Z,36.29
2016-04-30T10:01:59.436Z,36.29
2016-04-30T10:03:02.392Z,36.3
2016-04-30T10:04:00.504Z,36.29
2016-04-30T10:04:59.147Z,36.4
2016-04-30T10:05:59.275Z,36.47
2016-04-30T10:06:59.215Z,36.47
2016-04-30T10:07:59.155Z,36.29
2016-04-30T10:08:59.096Z,36.47
2016-04-30T10:09:59.082Z,36.57
2016-04-30T10:10:59.007Z,36.57
2016-04-30T10:12:02.166Z,36.77
2016-04-30T10:12:58.918Z,36.57
2016-04-30T10:13:58.860Z,36.77
2016-04-30T10:14:58.815Z,36.77
2016-04-30T10:15:58.755Z,36.57
2016-04-30T10:16:58.710Z,36.77
2016-04-30T10:17:58.666Z,36.67
2016-04-30T10:18:58.466Z,36.86
2016-04-30T10:19:58.562Z,36.77
2016-04-30T10:21:01.535Z,36.88
2016-04-30T10:21:58.474Z,36.96
2016-04-30T10:22:58.430Z,36.67
2016-04-30T10:23:58.371Z,36.86
2016-04-30T10:24:58.326Z,36.96
2016-04-30T10:26:01.297Z,36.86
2016-04-30T10:26:58.238Z,36.86
2016-04-30T10:27:58.193Z,36.86
2016-04-30T10:28:58.150Z,36.67
2016-04-30T10:29:57.934Z,37.05
2016-04-30T10:30:58.045Z,36.77
2016-04-30T10:31:58.001Z,36.69
2016-04-30T10:32:57.817Z,36.67
2016-04-30T10:33:57.897Z,36.86
2016-04-30T10:35:00.884Z,36.96
2016-04-30T10:35:57.793Z,36.79
2016-04-30T10:36:57.750Z,36.79
2016-04-30T10:38:03.611Z,36.96
2016-04-30T10:38:57.880Z,36.67
2016-04-30T10:39:57.601Z,36.86
2016-04-30T10:40:57.572Z,36.86
2016-04-30T10:41:57.497Z,36.67
2016-04-30T10:42:57.484Z,36.98
2016-04-30T10:43:57.424Z,36.86
2016-04-30T10:44:57.208Z,36.67
2016-04-30T10:45:57.367Z,37.07
2016-04-30T10:47:00.291Z,36.77
2016-04-30T10:47:57.216Z,36.57
2016-04-30T10:48:57.172Z,36.57
2016-04-30T10:49:57.127Z,36.77
2016-04-30T10:50:56.912Z,36.67
2016-04-30T10:51:57.070Z,36.77
2016-04-30T10:52:56.996Z,36.67
2016-04-30T10:53:56.921Z,36.38
2016-04-30T10:54:56.876Z,36.3
2016-04-30T10:55:56.676Z,36.3
2016-04-30T10:56:56.818Z,36.57
2016-04-30T10:57:56.743Z,36.38
2016-04-30T10:58:56.731Z,36.47
2016-04-30T10:59:56.639Z,36.38
2016-04-30T11:00:56.626Z,36.77
2016-04-30T11:01:56.550Z,36.67
2016-04-30T11:02:56.523Z,36.57
2016-04-30T11:03:56.462Z,36.59
2016-04-30T11:04:56.496Z,36.47
2016-04-30T11:05:56.343Z,36.57
2016-04-30T11:06:56.314Z,36.4
2016-04-30T11:07:56.457Z,36.38
2016-04-30T11:08:56.211Z,36.38
2016-04-30T11:09:56.167Z,36.4
2016-04-30T11:10:56.309Z,36.38
2016-04-30T11:11:56.046Z,36.21
2016-04-30T11:12:56.018Z,36.38
2016-04-30T11:13:55.980Z,36.57
2016-04-30T11:14:55.916Z,36.21
2016-04-30T11:15:59.095Z,36.57
2016-04-30T11:16:55.890Z,36.57
2016-04-30T11:17:55.987Z,36.67
2016-04-30T11:18:55.724Z,36.38
2016-04-30T11:19:55.696Z,36.47
2016-04-30T11:20:55.620Z,36.38
2016-04-30T11:21:55.591Z,36.4
2016-04-30T11:22:55.531Z,36.19
2016-04-30T11:23:55.471Z,36.38
2016-04-30T11:24:55.646Z,36.57
2016-04-30T11:25:58.398Z,36.47
2016-04-30T11:26:55.323Z,36.38
2016-04-30T11:27:55.279Z,36.57
2016-04-30T11:28:55.234Z,36.38
2016-04-30T11:29:55.206Z,36.38
2016-04-30T11:30:55.147Z,36.47
2016-04-30T11:31:54.930Z,36.57
2016-04-30T11:32:55.058Z,36.47
2016-04-30T11:33:55.014Z,36.47
2016-04-30T11:34:54.970Z,36.38
2016-04-30T11:35:54.895Z,36.38
2016-04-30T11:36:54.913Z,36.38
2016-04-30T11:37:54.790Z,36.38
2016-04-30T11:38:54.761Z,36.47
2016-04-30T11:39:54.702Z,36.38
2016-04-30T11:40:54.501Z,36.47
2016-04-30T11:41:54.598Z,36.47
2016-04-30T11:42:54.585Z,36.19
2016-04-30T11:43:54.510Z,36.21
2016-04-30T11:44:54.497Z,36.29
2016-04-30T11:45:54.406Z,36.19
2016-04-30T11:46:54.361Z,36.49
2016-04-30T11:47:54.332Z,36.47
2016-04-30T11:48:54.132Z,36.29
2016-04-30T11:49:54.338Z,36.67
2016-04-30T11:50:54.169Z,36.47
2016-04-30T11:51:54.124Z,36.59
2016-04-30T11:52:54.081Z,36.19
2016-04-30T11:53:54.036Z,36.59
2016-04-30T11:54:56.992Z,36.29
2016-04-30T11:55:56.948Z,36.19
2016-04-30T11:56:53.873Z,36.19
2016-04-30T11:57:56.828Z,36.19
2016-04-30T11:58:53.784Z,36.77
2016-04-30T11:59:53.771Z,36.19
2016-04-30T12:00:53.681Z,36.57
2016-04-30T12:01:56.652Z,36.67
2016-04-30T12:02:53.591Z,36.57
2016-04-30T12:03:53.563Z,36.38
2016-04-30T12:04:53.348Z,36.59
2016-04-30T12:05:53.444Z,36.38
2016-04-30T12:06:53.415Z,36.47
2016-04-30T12:07:53.356Z,36.38
2016-04-30T12:08:53.342Z,36.47
2016-04-30T12:09:53.235Z,36.4
2016-04-30T12:10:53.207Z,36.19
2016-04-30T12:11:52.991Z,36.19
2016-04-30T12:12:53.119Z,36.49
2016-04-30T12:13:53.058Z,36.57
2016-04-30T12:14:53.218Z,36.67
2016-04-30T12:15:52.814Z,36.67
2016-04-30T12:16:52.910Z,36.57
2016-04-30T12:17:53.085Z,36.77
2016-04-30T12:18:52.822Z,36.19
2016-04-30T12:19:52.622Z,36.67
2016-04-30T12:20:52.734Z,36.57
2016-04-30T12:21:55.690Z,36.19
2016-04-30T12:22:52.645Z,36.4
2016-04-30T12:23:52.570Z,36.47
2016-04-30T12:24:52.526Z,36.47
2016-04-30T12:25:52.326Z,36.47
2016-04-30T12:26:52.438Z,36.57
2016-04-30T12:27:52.393Z,36.47
2016-04-30T12:28:52.349Z,36.29
2016-04-30T12:29:52.290Z,36.29
2016-04-30T12:30:52.243Z,36.4
2016-04-30T12:31:52.229Z,36.47
2016-04-30T12:32:52.153Z,36.19
2016-04-30T12:33:52.550Z,36.47
2016-04-30T12:34:52.050Z,36.3
2016-04-30T12:35:52.006Z,36.38
2016-04-30T12:36:51.946Z,36.11
2016-04-30T12:37:51.902Z,36.38
2016-04-30T12:38:52.088Z,36.38
2016-04-30T12:39:51.865Z,36
2016-04-30T12:40:51.846Z,36
2016-04-30T12:41:51.843Z,36.1
2016-04-30T12:42:51.667Z,36.1
2016-04-30T12:43:51.656Z,36.1
2016-04-30T12:44:51.799Z,36
2016-04-30T12:45:51.754Z,36
2016-04-30T12:46:51.568Z,35.92
2016-04-30T12:47:51.524Z,35.9
2016-04-30T12:48:52.085Z,36
2016-04-30T12:49:51.452Z,35.9
2016-04-30T12:50:51.569Z,36
2016-04-30T12:51:54.539Z,35.9
2016-04-30T12:52:51.476Z,35.9
2016-04-30T12:53:51.436Z,36.19
2016-04-30T12:54:51.238Z,36.1
2016-04-30T12:55:54.356Z,36.11
2016-04-30T12:56:51.341Z,35.9